Time;durP1;ratioP1;P1;durP2;ratioP2;P2;SDS_P1;SDS_P2;PMS_P1;PMS_P2;Temp;Humidity;BMP_temperature;BMP_pressure;BME280_temperature;BME280_humidity;BME280_pressure;Samples;Min_cycle;Max_cycle;Signal;HPM_P1;HPM_P2
2022/05/19 00:03:02;;;;;;;12.25;6.60;;;16.00;67.60;;;;;;4136347;28;20037;-85
2022/05/19 00:05:23;;;;;;;11.25;7.00;;;16.00;67.80;;;;;;4137115;28;20120;-85
2022/05/19 00:07:43;;;;;;;12.55;6.93;;;16.00;68.00;;;;;;4138670;28;20026;-86
2022/05/19 00:09:45;;;;;;;10.18;6.82;;;16.00;68.50;;;;;;4135384;28;20033;-86
2022/05/19 00:12:18;;;;;;;9.90;7.32;;;16.00;69.40;;;;;;4137631;28;20041;-86
2022/05/19 00:14:38;;;;;;;15.32;8.73;;;16.00;69.20;;;;;;4136868;28;20033;-86
2022/05/19 00:16:59;;;;;;;11.60;7.57;;;15.90;69.20;;;;;;4137018;28;20064;-86
2022/05/19 00:19:20;;;;;;;9.98;7.53;;;15.90;69.60;;;;;;4134343;28;20709;-86
2022/05/19 00:21:41;;;;;;;11.52;8.32;;;16.00;70.00;;;;;;4136352;28;20566;-86
2022/05/19 00:24:02;;;;;;;18.85;8.50;;;16.00;70.20;;;;;;4142762;28;21633;-86
2022/05/19 00:26:23;;;;;;;12.32;8.20;;;16.00;70.50;;;;;;4128554;28;20026;-86
2022/05/19 00:28:44;;;;;;;14.70;10.00;;;16.00;70.80;;;;;;4138404;28;20053;-86
2022/05/19 00:30:44;;;;;;;16.27;9.07;;;16.00;70.90;;;;;;4138990;28;20030;-86
2022/05/19 00:32:45;;;;;;;13.40;9.82;;;16.00;71.40;;;;;;4125615;28;20098;-86
2022/05/19 00:34:48;;;;;;;13.18;9.93;;;16.00;71.60;;;;;;4128697;28;20046;-85
2022/05/19 00:36:56;;;;;;;17.92;9.80;;;16.00;71.80;;;;;;4124120;28;20042;-86
2022/05/19 00:38:57;;;;;;;17.00;9.82;;;16.00;72.10;;;;;;4141119;28;20260;-86
2022/05/19 00:40:58;;;;;;;12.80;9.90;;;16.00;72.10;;;;;;4140580;28;20032;-85
2022/05/19 00:42:58;;;;;;;15.13;10.25;;;16.00;72.30;;;;;;4140972;28;20053;-87
2022/05/19 00:44:59;;;;;;;16.40;10.32;;;16.10;72.40;;;;;;4126552;28;20080;-86
2022/05/19 00:47:00;;;;;;;18.23;9.75;;;16.10;72.50;;;;;;4123016;28;20534;-86
2022/05/19 00:49:23;;;;;;;16.85;10.43;;;16.10;72.50;;;;;;4137874;28;20029;-86
2022/05/19 00:51:56;;;;;;;17.60;10.65;;;16.10;72.60;;;;;;4141482;28;20022;-86
2022/05/19 00:53:58;;;;;;;14.27;10.35;;;16.10;72.90;;;;;;4120851;28;20543;-86
2022/05/19 00:56:10;;;;;;;14.40;10.45;;;16.10;72.50;;;;;;4138699;28;20058;-86
2022/05/19 00:58:23;;;;;;;16.65;10.50;;;16.10;72.70;;;;;;4137351;28;20040;-86
2022/05/19 01:00:26;;;;;;;11.55;9.35;;;16.10;72.60;;;;;;4122767;28;20026;-86
2022/05/19 01:02:33;;;;;;;12.45;9.82;;;16.10;72.60;;;;;;4138909;28;20457;-87
2022/05/19 01:05:02;;;;;;;16.65;10.50;;;16.10;72.70;;;;;;4126072;28;20589;-85
2022/05/19 01:07:09;;;;;;;16.73;11.73;;;16.10;72.70;;;;;;4139303;28;20647;-86
2022/05/19 01:09:14;;;;;;;22.35;11.93;;;16.10;72.60;;;;;;4137517;28;20042;-86
2022/05/19 01:11:16;;;;;;;17.17;12.07;;;16.00;72.70;;;;;;4121388;28;20309;-85
2022/05/19 01:13:16;;;;;;;18.73;12.13;;;16.10;72.90;;;;;;4140839;28;20069;-85
2022/05/19 01:15:18;;;;;;;18.23;11.40;;;16.00;72.90;;;;;;4138218;28;20026;-86
2022/05/19 01:17:35;;;;;;;16.05;11.15;;;16.00;73.00;;;;;;4126852;28;20609;-86
2022/05/19 01:19:40;;;;;;;16.73;11.90;;;16.00;73.10;;;;;;4110555;28;20034;-86
2022/05/19 01:21:42;;;;;;;15.73;11.77;;;16.00;73.10;;;;;;4123778;28;20980;-84
2022/05/19 01:24:16;;;;;;;17.80;11.20;;;16.00;73.20;;;;;;4140650;28;20239;-86
2022/05/19 01:26:41;;;;;;;18.33;11.55;;;16.00;73.10;;;;;;4140191;28;20038;-86
2022/05/19 01:28:43;;;;;;;24.88;12.07;;;16.00;73.10;;;;;;4104856;28;20303;-86
2022/05/19 01:31:25;;;;;;;16.70;10.73;;;16.00;73.00;;;;;;4125935;28;20134;-86
2022/05/19 01:33:46;;;;;;;15.15;10.93;;;16.00;73.00;;;;;;4139625;28;20104;-86
2022/05/19 01:35:59;;;;;;;;;;;16.00;72.90;;;;;;4109485;28;20019;-85
2022/05/19 01:38:30;;;;;;;18.45;12.50;;;15.90;73.50;;;;;;4140018;28;19917;-86
2022/05/19 01:41:06;;;;;;;19.08;11.85;;;15.90;72.50;;;;;;4124335;28;20049;-86
2022/05/19 01:43:48;;;;;;;17.95;11.77;;;15.90;72.60;;;;;;4139632;28;20038;-86
2022/05/19 01:46:22;;;;;;;23.00;14.02;;;15.90;73.00;;;;;;4138839;28;20041;-85
2022/05/19 01:48:56;;;;;;;27.80;14.15;;;15.90;73.10;;;;;;4136469;28;20042;-85
2022/05/19 01:51:46;;;;;;;19.98;13.50;;;15.80;73.10;;;;;;4138165;28;20046;-85
2022/05/19 01:54:14;;;;;;;22.30;13.20;;;15.80;73.80;;;;;;4141917;28;20087;-85
2022/05/19 01:56:21;;;;;;;18.33;13.35;;;15.80;73.30;;;;;;4138769;28;20569;-86
2022/05/19 01:58:35;;;;;;;21.95;13.68;;;15.80;73.40;;;;;;4140990;28;20057;-86
2022/05/19 02:00:36;;;;;;;24.40;13.90;;;15.80;73.70;;;;;;4138571;28;20037;-86
2022/05/19 02:02:47;;;;;;;20.83;13.88;;;15.90;74.00;;;;;;4106953;28;20035;-86
2022/05/19 02:05:27;;;;;;;21.48;14.13;;;15.70;73.80;;;;;;4139137;28;20485;-86
2022/05/19 02:07:33;;;;;;;25.17;15.70;;;15.70;73.90;;;;;;4090285;28;20137;-85
2022/05/19 02:09:40;;;;;;;27.77;14.35;;;15.70;73.70;;;;;;4088978;28;20146;-86
2022/05/19 02:11:49;;;;;;;21.85;15.00;;;15.80;73.90;;;;;;4070685;29;20999;-86
2022/05/19 02:13:50;;;;;;;24.58;15.20;;;15.80;74.00;;;;;;4106679;28;20026;-86
2022/05/19 02:15:53;;;;;;;23.92;15.50;;;15.70;74.10;;;;;;4093166;28;20031;-86
2022/05/19 02:17:55;;;;;;;24.17;15.00;;;15.70;74.10;;;;;;4085824;28;20517;-86
2022/05/19 02:19:59;;;;;;;23.40;15.93;;;15.70;74.20;;;;;;4073980;29;20581;-85
2022/05/19 02:22:01;;;;;;;30.83;16.23;;;15.70;74.30;;;;;;4085812;28;20039;-85
2022/05/19 02:24:03;;;;;;;22.88;15.25;;;15.60;74.20;;;;;;4098924;28;20042;-86
2022/05/19 02:26:03;;;;;;;26.00;15.40;;;15.60;74.30;;;;;;4096327;28;20059;-86
2022/05/19 02:28:20;;;;;;;26.25;15.80;;;15.60;74.40;;;;;;4092984;28;20024;-86
2022/05/19 02:30:26;;;;;;;23.27;15.30;;;15.60;74.30;;;;;;4092599;28;20049;-85
2022/05/19 02:32:28;;;;;;;25.30;16.48;;;15.60;74.30;;;;;;4090116;28;20067;-85
2022/05/19 02:34:28;;;;;;;26.52;16.52;;;15.60;74.30;;;;;;4072389;29;20115;-86
2022/05/19 02:36:29;;;;;;;28.45;17.05;;;15.60;74.30;;;;;;4090516;28;20054;-85
2022/05/19 02:38:30;;;;;;;24.58;16.48;;;15.60;75.00;;;;;;4086257;28;20043;-86
2022/05/19 02:40:33;;;;;;;28.48;16.90;;;15.60;74.20;;;;;;4070987;29;20044;-86
2022/05/19 02:42:34;;;;;;;29.60;16.35;;;15.60;74.20;;;;;;4076844;28;20537;-85
2022/05/19 02:44:35;;;;;;;25.20;16.67;;;15.60;74.30;;;;;;4134037;28;20041;-86
2022/05/19 02:46:37;;;;;;;32.63;18.55;;;15.50;74.20;;;;;;4138503;28;20025;-85
2022/05/19 02:48:37;;;;;;;25.63;17.33;;;15.50;74.20;;;;;;4121361;28;20042;-86
2022/05/19 02:50:42;;;;;;;30.73;18.33;;;15.50;74.20;;;;;;4145387;28;20037;-86
2022/05/19 02:52:44;;;;;;;27.52;17.27;;;15.50;74.20;;;;;;4148537;28;20030;-85
2022/05/19 02:54:44;;;;;;;30.75;17.35;;;15.50;74.20;;;;;;4122495;28;20073;-85
2022/05/19 02:56:45;;;;;;;25.85;16.40;;;15.60;74.30;;;;;;4136981;28;20409;-86
2022/05/19 02:58:46;;;;;;;23.50;15.93;;;15.50;74.20;;;;;;4138267;28;20036;-85
2022/05/19 03:00:48;;;;;;;27.23;16.40;;;15.50;74.10;;;;;;4120120;28;20045;-86
2022/05/19 03:02:51;;;;;;;25.05;15.32;;;15.40;73.90;;;;;;4138215;28;20044;-85
2022/05/19 03:04:52;;;;;;;20.02;14.20;;;15.40;73.60;;;;;;4137053;28;20041;-85
2022/05/19 03:06:53;;;;;;;20.02;14.45;;;15.40;73.30;;;;;;4121068;28;20061;-86
2022/05/19 03:08:53;;;;;;;23.48;15.25;;;15.40;73.10;;;;;;4137715;28;20501;-86
2022/05/19 03:10:54;;;;;;;19.92;13.85;;;15.40;73.00;;;;;;4123842;28;20022;-84
2022/05/19 03:12:56;;;;;;;21.15;13.35;;;15.30;72.80;;;;;;4146789;28;20029;-86
2022/05/19 03:14:57;;;;;;;18.77;13.00;;;15.30;72.80;;;;;;4121206;28;20065;-85
2022/05/19 03:16:57;;;;;;;21.33;12.50;;;15.30;72.80;;;;;;4120897;28;20253;-85
2022/05/19 03:18:58;;;;;;;24.40;13.88;;;15.30;72.80;;;;;;4121460;28;20030;-85
2022/05/19 03:20:59;;;;;;;20.33;14.35;;;15.20;72.80;;;;;;4120233;28;20034;-85
2022/05/19 03:22:59;;;;;;;23.38;14.82;;;15.20;72.80;;;;;;4140337;28;20507;-85
2022/05/19 03:25:00;;;;;;;22.00;15.13;;;15.30;72.80;;;;;;4122314;28;20026;-86
2022/05/19 03:27:01;;;;;;;23.60;15.00;;;15.20;72.70;;;;;;4136107;28;20087;-86
2022/05/19 03:29:03;;;;;;;26.13;14.77;;;15.20;72.70;;;;;;4119897;28;20045;-86
2022/05/19 03:31:04;;;;;;;24.55;14.95;;;15.10;73.40;;;;;;4136893;28;20032;-85
2022/05/19 03:33:04;;;;;;;25.77;16.65;;;15.10;72.60;;;;;;4138627;28;20022;-85
2022/05/19 03:35:06;;;;;;;32.15;18.45;;;15.10;72.60;;;;;;4120538;28;20445;-85
2022/05/19 03:37:07;;;;;;;28.02;16.42;;;15.10;72.60;;;;;;4137673;28;20485;-86
2022/05/19 03:39:08;;;;;;;34.58;22.50;;;15.10;72.70;;;;;;4137054;28;20029;-85
2022/05/19 03:41:10;;;;;;;36.80;22.27;;;15.10;72.90;;;;;;4141985;28;20081;-86
2022/05/19 03:43:10;;;;;;;41.25;24.10;;;15.00;73.10;;;;;;4119459;28;20038;-86
2022/05/19 03:45:12;;;;;;;33.17;21.38;;;15.00;73.30;;;;;;4119857;28;20030;-86
2022/05/19 03:47:13;;;;;;;39.90;24.40;;;15.00;73.40;;;;;;4138250;28;20445;-86
2022/05/19 03:49:15;;;;;;;33.63;22.27;;;15.00;73.50;;;;;;4137069;28;20033;-85
2022/05/19 03:51:36;;;;;;;37.20;22.90;;;15.10;73.80;;;;;;4135133;28;20030;-86
2022/05/19 03:53:57;;;;;;;41.85;25.67;;;15.00;73.90;;;;;;4133175;28;20040;-86
2022/05/19 03:55:57;;;;;;;38.55;23.55;;;15.00;74.00;;;;;;4136753;28;20034;-86
2022/05/19 03:57:58;;;;;;;31.90;19.83;;;15.00;74.10;;;;;;4141361;28;20117;-86
2022/05/19 04:00:19;;;;;;;24.13;16.60;;;15.00;74.10;;;;;;4141623;28;20419;-85
2022/05/19 04:02:40;;;;;;;26.45;16.15;;;15.00;74.00;;;;;;4140671;28;20084;-86
2022/05/19 04:05:02;;;;;;;28.15;17.15;;;15.00;73.80;;;;;;4142522;28;20041;-85
2022/05/19 04:07:23;;;;;;;34.70;19.63;;;15.00;73.50;;;;;;4139574;28;20048;-85
2022/05/19 04:09:46;;;;;;;25.88;18.67;;;15.00;73.50;;;;;;4140324;28;20053;-85
2022/05/19 04:12:08;;;;;;;28.73;18.30;;;15.00;73.40;;;;;;4141115;28;20611;-85
2022/05/19 04:14:28;;;;;;;28.00;18.70;;;15.00;73.50;;;;;;4143434;28;20163;-85
2022/05/19 04:16:51;;;;;;;34.28;19.88;;;15.00;73.60;;;;;;4141709;28;20073;-86
2022/05/19 04:19:12;;;;;;;38.42;20.77;;;15.10;73.80;;;;;;4140235;28;20026;-86
2022/05/19 04:22:28;;;;;;;34.17;21.52;;;15.00;73.90;;;;;;4142819;28;20494;-85
2022/05/19 04:24:29;;;;;;;34.83;21.80;;;15.00;74.00;;;;;;4136251;28;20037;-85
2022/05/19 04:26:30;;;;;;;34.78;20.48;;;15.00;73.90;;;;;;4120652;28;20034;-85
2022/05/19 04:28:32;;;;;;;30.88;18.80;;;15.10;73.90;;;;;;4125762;28;20038;-85
2022/05/19 04:30:33;;;;;;;32.25;19.92;;;15.00;74.00;;;;;;4138000;28;20078;-85
2022/05/19 04:32:34;;;;;;;30.83;19.23;;;15.00;74.40;;;;;;4139443;28;20677;-85
2022/05/19 04:34:37;;;;;;;30.77;19.33;;;15.00;74.40;;;;;;4135243;28;20036;-85
2022/05/19 04:36:40;;;;;;;31.10;18.83;;;15.10;74.40;;;;;;4142459;28;20024;-85
2022/05/19 04:38:42;;;;;;;30.63;19.65;;;15.10;74.60;;;;;;4144527;28;20041;-85
2022/05/19 04:40:47;;;;;;;33.35;21.55;;;15.10;74.80;;;;;;4140765;28;20520;-85
2022/05/19 04:42:48;;;;;;;33.78;20.00;;;15.10;75.20;;;;;;4141169;28;20088;-87
2022/05/19 04:44:49;;;;;;;33.72;22.02;;;15.20;75.50;;;;;;4122656;28;20038;-85
2022/05/19 04:46:50;;;;;;;34.55;23.20;;;15.20;75.80;;;;;;4121998;28;20098;-86
2022/05/19 04:48:50;;;;;;;38.17;22.58;;;15.20;75.90;;;;;;4144302;28;20520;-85
2022/05/19 04:50:53;;;;;;;34.33;23.17;;;15.30;76.10;;;;;;4145523;28;20038;-85
2022/05/19 04:52:58;;;;;;;36.78;23.17;;;15.30;76.20;;;;;;4144474;28;20029;-85
2022/05/19 04:54:59;;;;;;;43.88;23.20;;;15.40;76.30;;;;;;4131156;28;20194;-84
2022/05/19 04:57:00;;;;;;;34.70;22.10;;;15.40;76.30;;;;;;4145162;28;20096;-85
2022/05/19 04:59:03;;;;;;;40.30;23.25;;;15.60;76.40;;;;;;4149915;28;20029;-85
2022/05/19 05:01:05;;;;;;;38.35;24.23;;;15.50;77.20;;;;;;4147145;28;20033;-85
2022/05/19 05:03:06;;;;;;;40.13;24.30;;;15.60;76.40;;;;;;4146212;28;20413;-85
2022/05/19 05:05:07;;;;;;;40.50;22.85;;;15.60;76.40;;;;;;4146097;28;20109;-84
2022/05/19 05:07:08;;;;;;;38.03;23.98;;;15.60;76.40;;;;;;4142475;28;20056;-86
2022/05/19 05:09:09;;;;;;;35.90;23.08;;;15.80;76.50;;;;;;4145185;28;20026;-85
2022/05/19 05:11:10;;;;;;;37.13;23.52;;;15.70;76.40;;;;;;4129412;28;20029;-84
2022/05/19 05:13:31;;;;;;;39.38;24.52;;;15.90;76.50;;;;;;4145083;28;20034;-85
2022/05/19 05:15:52;;;;;;;38.88;26.08;;;15.80;76.30;;;;;;4146400;28;20037;-85
2022/05/19 05:18:00;;;;;;;41.92;27.45;;;15.90;76.40;;;;;;4141785;28;20022;-85
2022/05/19 05:20:21;;;;;;;52.60;29.73;;;16.00;76.50;;;;;;4145551;28;20034;-86
2022/05/19 05:22:22;;;;;;;53.53;31.52;;;16.00;76.50;;;;;;4128718;28;20027;-85
2022/05/19 05:24:42;;;;;;;55.85;31.42;;;16.00;76.70;;;;;;4146238;28;20045;-84
2022/05/19 05:27:05;;;;;;;52.03;31.42;;;16.10;77.10;;;;;;4146742;28;20038;-86
2022/05/19 05:29:25;;;;;;;55.80;34.83;;;16.20;77.30;;;;;;4146539;28;20053;-84
2022/05/19 05:31:46;;;;;;;64.43;35.63;;;16.20;77.50;;;;;;4145853;28;20046;-84
2022/05/19 05:34:07;;;;;;;65.63;36.90;;;16.30;77.60;;;;;;4146754;28;20071;-85
2022/05/19 05:36:08;;;;;;;67.68;39.35;;;16.50;77.80;;;;;;4146998;28;20037;-85
2022/05/19 05:38:09;;;;;;;64.30;38.47;;;16.50;77.80;;;;;;4147260;28;20104;-84
2022/05/19 05:40:11;;;;;;;67.53;38.00;;;16.50;77.80;;;;;;4146863;28;20026;-84
2022/05/19 05:42:11;;;;;;;64.50;37.55;;;16.60;77.80;;;;;;4152071;28;20508;-84
2022/05/19 05:44:14;;;;;;;69.47;38.85;;;16.70;77.80;;;;;;4148381;28;20101;-85
2022/05/19 05:46:15;;;;;;;59.35;38.72;;;16.80;77.80;;;;;;4115029;28;20505;-85
2022/05/19 05:48:17;;;;;;;56.45;35.50;;;16.80;77.80;;;;;;4147334;28;20507;-83
2022/05/19 05:50:18;;;;;;;71.80;38.33;;;16.90;77.70;;;;;;4112281;28;20051;-85
2022/05/19 05:52:20;;;;;;;60.13;36.75;;;16.90;77.60;;;;;;4129914;28;20018;-84
2022/05/19 05:54:21;;;;;;;59.75;36.88;;;17.00;77.40;;;;;;4129571;28;20077;-87
2022/05/19 05:56:22;;;;;;;66.53;36.47;;;17.10;77.30;;;;;;4143820;28;20034;-85
2022/05/19 05:58:23;;;;;;;62.83;36.78;;;17.10;77.10;;;;;;4152964;28;20033;-86
2022/05/19 06:00:24;;;;;;;65.97;38.53;;;17.20;76.90;;;;;;4146407;28;20034;-85
2022/05/19 06:02:25;;;;;;;60.95;35.72;;;17.30;76.60;;;;;;4146473;28;20121;-87
2022/05/19 06:04:25;;;;;;;56.70;34.08;;;17.30;76.30;;;;;;4147270;28;20033;-85
2022/05/19 06:06:26;;;;;;;56.13;36.95;;;17.40;76.10;;;;;;4146963;28;20521;-85
2022/05/19 06:08:27;;;;;;;56.15;35.30;;;17.40;75.90;;;;;;4146571;28;20026;-84
2022/05/19 06:10:28;;;;;;;55.22;35.80;;;17.40;75.70;;;;;;4150585;28;20010;-87
2022/05/19 06:12:29;;;;;;;54.90;34.22;;;17.50;75.60;;;;;;4165450;28;20169;-86
2022/05/19 06:14:30;;;;;;;56.55;34.67;;;17.50;75.50;;;;;;4146148;28;20042;-86
2022/05/19 06:16:31;;;;;;;50.25;33.38;;;17.60;75.50;;;;;;4148869;28;20029;-85
2022/05/19 06:18:32;;;;;;;52.70;32.45;;;17.60;75.50;;;;;;4117392;28;20030;-85
2022/05/19 06:20:33;;;;;;;54.03;32.92;;;17.60;75.40;;;;;;4130795;28;20033;-85
2022/05/19 06:22:34;;;;;;;53.83;32.55;;;17.60;75.30;;;;;;4146171;28;20512;-85
2022/05/19 06:24:35;;;;;;;49.03;31.50;;;17.70;75.30;;;;;;4148309;28;20278;-85
2022/05/19 06:26:37;;;;;;;52.78;31.35;;;17.70;75.20;;;;;;4147229;28;20057;-84
2022/05/19 06:28:38;;;;;;;50.33;29.10;;;17.80;75.10;;;;;;4148836;28;20041;-84
2022/05/19 06:30:39;;;;;;;60.47;30.17;;;17.80;74.90;;;;;;4146564;28;20049;-85
2022/05/19 06:32:41;;;;;;;54.38;29.75;;;17.90;74.80;;;;;;4144500;28;20441;-85
2022/05/19 06:34:41;;;;;;;47.70;31.60;;;17.90;74.70;;;;;;4147447;28;20041;-85
2022/05/19 06:36:43;;;;;;;46.58;30.10;;;18.00;74.50;;;;;;4149092;28;20474;-86
2022/05/19 06:38:47;;;;;;;45.58;29.65;;;18.00;74.40;;;;;;4145609;28;20057;-85
2022/05/19 06:40:48;;;;;;;49.17;31.20;;;18.00;74.30;;;;;;4147433;28;20033;-85
2022/05/19 06:43:11;;;;;;;46.67;30.08;;;18.10;74.30;;;;;;4143186;28;20061;-86
2022/05/19 06:45:32;;;;;;;47.83;29.25;;;18.20;74.40;;;;;;4144052;28;20116;-86
2022/05/19 06:47:37;;;;;;;52.33;33.35;;;18.20;74.50;;;;;;4130705;28;20422;-84
2022/05/19 06:49:51;;;;;;;47.05;30.10;;;18.20;74.50;;;;;;4154120;28;20097;-85
2022/05/19 06:52:13;;;;;;;41.45;24.83;;;18.30;74.70;;;;;;4154925;28;20041;-85
2022/05/19 06:54:34;;;;;;;39.88;24.75;;;18.40;74.60;;;;;;4140792;28;20034;-85
2022/05/19 06:56:54;;;;;;;36.50;23.83;;;18.50;74.60;;;;;;4157428;28;20129;-85
2022/05/19 06:59:16;;;;;;;34.80;21.30;;;18.70;74.70;;;;;;4149970;28;20129;-85
2022/05/19 07:01:37;;;;;;;35.70;22.50;;;18.80;75.30;;;;;;4142966;28;20029;-84
2022/05/19 07:03:58;;;;;;;36.08;23.60;;;18.90;74.10;;;;;;4141228;28;20038;-85
2022/05/19 07:06:18;;;;;;;35.22;19.75;;;19.10;73.50;;;;;;4146512;28;20113;-85
2022/05/19 07:08:40;;;;;;;29.80;19.55;;;19.30;72.90;;;;;;4146480;28;20060;-85
2022/05/19 07:11:00;;;;;;;24.50;16.02;;;19.30;71.00;;;;;;4145029;28;20088;-85
2022/05/19 07:13:21;;;;;;;22.77;14.48;;;19.40;70.90;;;;;;4145209;28;20034;-86
2022/05/19 07:15:41;;;;;;;21.40;12.50;;;19.60;70.30;;;;;;4144718;28;20033;-85
2022/05/19 07:18:02;;;;;;;22.95;12.55;;;19.70;69.60;;;;;;4146736;28;20042;-85
2022/05/19 07:22:49;;;;;;;17.38;10.63;;;19.80;68.50;;;;;;4144464;28;20034;-85
2022/05/19 07:25:11;;;;;;;18.75;10.23;;;20.00;68.20;;;;;;4140181;28;20111;-85
2022/05/19 07:27:33;;;;;;;16.48;10.20;;;20.00;67.60;;;;;;4147752;28;20048;-85
2022/05/19 07:29:55;;;;;;;18.98;10.57;;;20.10;67.40;;;;;;4142718;28;20163;-85
2022/05/19 07:32:15;;;;;;;15.75;10.13;;;20.20;67.30;;;;;;4141892;28;20056;-85
2022/05/19 07:34:39;;;;;;;18.30;10.68;;;20.30;66.90;;;;;;4144074;28;20038;-85
2022/05/19 07:37:00;;;;;;;17.25;10.45;;;20.40;66.30;;;;;;4145384;28;20033;-87
2022/05/19 07:39:12;;;;;;;17.13;10.20;;;20.50;65.70;;;;;;4144924;28;20018;-85
2022/05/19 07:41:33;;;;;;;16.55;9.23;;;20.60;65.30;;;;;;4140827;28;20038;-85
2022/05/19 07:43:53;;;;;;;16.45;9.90;;;20.60;65.60;;;;;;4144659;28;20088;-85
2022/05/19 07:46:06;;;;;;;15.77;8.80;;;20.70;64.20;;;;;;4143726;28;20161;-85
2022/05/19 07:48:26;;;;;;;15.13;8.60;;;20.70;63.80;;;;;;4145531;28;20150;-85
2022/05/19 07:50:47;;;;;;;12.65;9.00;;;20.70;63.80;;;;;;4143558;28;20026;-85
2022/05/19 07:53:08;;;;;;;15.45;8.82;;;20.80;63.60;;;;;;4145551;28;20573;-85
2022/05/19 07:55:29;;;;;;;15.68;10.35;;;20.80;63.50;;;;;;4142720;28;20042;-85
2022/05/19 07:57:49;;;;;;;15.00;10.00;;;20.90;63.50;;;;;;4145827;28;20117;-86
2022/05/19 08:00:10;;;;;;;19.08;9.95;;;20.90;63.20;;;;;;4144548;28;20034;-86
2022/05/19 08:02:32;;;;;;;18.92;10.75;;;21.00;63.30;;;;;;4140750;28;20141;-85
2022/05/19 08:04:52;;;;;;;19.30;12.10;;;21.00;63.20;;;;;;4142565;28;20056;-86
2022/05/19 08:07:13;;;;;;;21.55;11.88;;;21.10;62.60;;;;;;4144005;28;20464;-85
2022/05/19 08:15:34;;;;;;;16.85;10.25;;;21.20;62.30;;;;;;4145187;28;20054;-86
2022/05/19 08:17:39;;;;;;;17.80;10.10;;;21.40;61.20;;;;;;4141553;28;20042;-85
2022/05/19 08:20:00;;;;;;;24.77;10.77;;;21.50;61.80;;;;;;4143969;28;20128;-85
2022/05/19 08:22:20;;;;;;;19.38;9.48;;;21.60;61.90;;;;;;4128953;28;20034;-87
2022/05/19 08:24:24;;;;;;;18.65;10.82;;;21.60;61.70;;;;;;4145486;28;20138;-85
2022/05/19 08:26:24;;;;;;;;;;;21.70;62.50;;;;;;4127892;28;20034;-85
2022/05/19 08:28:31;;;;;;;24.05;15.55;;;21.80;60.70;;;;;;4125508;28;20096;-85
2022/05/19 08:30:32;;;;;;;26.58;16.55;;;21.80;61.10;;;;;;4144652;28;20038;-86
2022/05/19 08:32:33;;;;;;;21.38;13.48;;;21.90;61.60;;;;;;4148989;28;20490;-85
2022/05/19 08:34:33;;;;;;;16.48;11.80;;;21.90;61.80;;;;;;4144322;28;20025;-85
2022/05/19 08:36:35;;;;;;;20.38;12.32;;;21.90;61.70;;;;;;4125024;28;20030;-87
2022/05/19 08:38:36;;;;;;;19.52;10.60;;;22.00;61.50;;;;;;4140764;28;20092;-85
2022/05/19 08:40:44;;;;;;;16.88;10.70;;;22.10;61.40;;;;;;4146055;28;20041;-83
2022/05/19 08:42:51;;;;;;;22.55;11.88;;;22.10;61.20;;;;;;4148494;28;20037;-84
2022/05/19 08:44:57;;;;;;;21.20;11.10;;;22.10;61.20;;;;;;4134684;28;20061;-84
2022/05/19 08:46:59;;;;;;;;;;;22.20;61.50;;;;;;4151118;28;20485;-84
2022/05/19 08:49:30;;;;;;;13.10;6.60;;;22.30;61.90;;;;;;4148754;28;19917;-84
2022/05/19 08:51:38;;;;;;;18.05;7.38;;;22.40;61.40;;;;;;4149927;28;20086;-84
2022/05/19 08:53:41;;;;;;;12.57;4.80;;;22.50;61.10;;;;;;4151464;28;20037;-85
2022/05/19 08:55:48;;;;;;;7.32;4.05;;;22.50;60.20;;;;;;4143618;28;20056;-85
2022/05/19 08:58:19;;;;;;;7.15;3.80;;;22.60;59.40;;;;;;4148818;28;20038;-86
2022/05/19 09:00:25;;;;;;;9.43;4.07;;;22.70;59.10;;;;;;4150157;28;20111;-84
2022/05/19 09:02:56;;;;;;;10.63;4.47;;;22.70;59.00;;;;;;4134839;28;20517;-85
2022/05/19 09:05:14;;;;;;;12.63;8.18;;;22.70;59.00;;;;;;4148544;28;20030;-86
2022/05/19 09:10:11;;;;;;;39.67;26.98;;;22.90;59.20;;;;;;4148297;28;20030;-86
2022/05/19 09:12:18;;;;;;;41.30;28.27;;;22.90;58.00;;;;;;4149431;28;20030;-85
2022/05/19 09:14:23;;;;;;;43.83;27.52;;;22.70;57.10;;;;;;4131468;28;20030;-87
2022/05/19 09:16:44;;;;;;;39.63;27.27;;;22.70;56.90;;;;;;4149789;28;20544;-84
2022/05/19 09:19:09;;;;;;;39.05;24.42;;;22.50;56.90;;;;;;4146867;28;20333;-85
2022/05/19 09:21:30;;;;;;;37.53;25.35;;;22.40;57.40;;;;;;4147819;28;20405;-86
2022/05/19 09:23:32;;;;;;;33.75;22.83;;;22.30;58.10;;;;;;4130033;28;20502;-86
2022/05/19 09:25:36;;;;;;;35.25;20.67;;;22.20;58.50;;;;;;4147777;28;20037;-86
2022/05/19 09:27:40;;;;;;;31.73;19.33;;;22.10;58.80;;;;;;4145214;28;20092;-86
2022/05/19 09:29:45;;;;;;;32.78;17.35;;;22.10;59.20;;;;;;4129713;28;20049;-86
2022/05/19 09:31:53;;;;;;;27.85;16.85;;;22.00;59.70;;;;;;4144080;28;20088;-86
2022/05/19 09:33:56;;;;;;;29.95;16.92;;;22.00;59.90;;;;;;4142325;28;20022;-86
2022/05/19 09:36:01;;;;;;;29.85;16.98;;;22.00;59.80;;;;;;4148625;28;20033;-86
2022/05/19 09:38:33;;;;;;;52.42;15.80;;;22.00;59.90;;;;;;4147728;28;20061;-86
2022/05/19 09:41:00;;;;;;;25.13;15.25;;;22.00;59.80;;;;;;4148943;28;20080;-85
2022/05/19 09:43:08;;;;;;;28.85;17.15;;;22.10;59.90;;;;;;4150969;28;20053;-85
2022/05/19 09:45:35;;;;;;;28.15;15.30;;;22.10;59.60;;;;;;4147463;28;20180;-85
2022/05/19 09:47:42;;;;;;;24.40;14.75;;;22.10;59.80;;;;;;4128909;28;20699;-85
2022/05/19 09:49:54;;;;;;;23.88;15.38;;;22.20;60.10;;;;;;4148091;28;20824;-85
2022/05/19 09:52:24;;;;;;;29.92;15.57;;;22.20;60.40;;;;;;4142407;28;20061;-87
2022/05/19 09:54:32;;;;;;;24.92;16.33;;;22.20;60.30;;;;;;4145128;28;20022;-87
2022/05/19 09:56:59;;;;;;;25.88;15.07;;;22.30;60.40;;;;;;4160695;28;20013;-87
2022/05/19 09:59:50;;;;;;;29.17;17.25;;;22.30;60.60;;;;;;4163991;28;20085;-89
2022/05/19 10:02:32;;;;;;;30.25;17.40;;;22.40;60.10;;;;;;4148287;28;20040;-86
2022/05/19 10:04:59;;;;;;;24.63;16.35;;;22.40;59.60;;;;;;4146611;28;20037;-84
2022/05/19 10:07:23;;;;;;;30.08;18.25;;;22.50;59.80;;;;;;4141459;28;20048;-87
2022/05/19 10:09:47;;;;;;;30.15;17.80;;;22.50;59.50;;;;;;4131423;28;20034;-85
2022/05/19 10:12:11;;;;;;;34.05;19.08;;;22.50;59.40;;;;;;4145255;28;20059;-84
2022/05/19 10:14:24;;;;;;;29.52;16.75;;;22.50;59.00;;;;;;4146138;28;20416;-86
2022/05/19 10:16:52;;;;;;;26.98;16.70;;;22.50;59.00;;;;;;4146372;28;20038;-86
2022/05/19 10:19:05;;;;;;;27.02;15.13;;;22.50;58.10;;;;;;4145793;28;20464;-86
2022/05/19 10:21:32;;;;;;;28.48;17.95;;;22.60;58.30;;;;;;4145647;28;20036;-84
2022/05/19 10:24:04;;;;;;;31.88;19.42;;;22.50;58.10;;;;;;4150042;28;20030;-87
2022/05/19 10:26:10;;;;;;;26.27;16.23;;;22.50;57.90;;;;;;4145594;28;20030;-86
2022/05/19 10:31:52;;;;;;;21.67;14.07;;;22.60;57.60;;;;;;4113729;28;20038;-85
2022/05/19 10:34:15;;;;;;;19.30;12.20;;;22.60;57.10;;;;;;4104375;28;20570;-84
2022/05/19 10:37:07;;;;;;;21.17;12.25;;;22.60;56.60;;;;;;4144811;28;20445;-87
2022/05/19 10:39:30;;;;;;;17.48;10.68;;;22.60;55.80;;;;;;4093445;28;20042;-87
2022/05/19 10:41:35;;;;;;;21.20;12.85;;;22.70;56.80;;;;;;4137894;28;20267;-86
2022/05/19 10:44:00;;;;;;;21.63;12.65;;;22.70;56.30;;;;;;4110746;28;20054;-86
2022/05/19 10:46:27;;;;;;;20.85;11.27;;;22.60;56.00;;;;;;4146273;28;20037;-86
2022/05/19 10:49:19;;;;;;;20.77;10.25;;;22.60;56.40;;;;;;4148019;28;20128;-86
2022/05/19 10:51:39;;;;;;;15.20;9.23;;;22.60;56.50;;;;;;4146987;28;20038;-86
2022/05/19 10:54:03;;;;;;;15.70;9.02;;;22.60;56.60;;;;;;4140370;28;20034;-87
2022/05/19 10:56:22;;;;;;;15.55;8.52;;;22.60;57.00;;;;;;4146429;28;20030;-89
2022/05/19 10:59:04;;;;;;;10.35;7.25;;;22.60;57.10;;;;;;4145704;28;20117;-86
2022/05/19 11:01:25;;;;;;;11.98;7.47;;;22.60;57.40;;;;;;4143507;28;20038;-86
2022/05/19 11:03:52;;;;;;;12.52;7.50;;;22.60;57.60;;;;;;4140560;28;20041;-85
2022/05/19 11:06:56;;;;;;;9.10;6.28;;;22.70;57.90;;;;;;4145554;28;20448;-85
2022/05/19 11:08:59;;;;;;;9.52;6.32;;;22.70;58.00;;;;;;4148071;28;20602;-85
2022/05/19 11:12:01;;;;;;;8.27;5.68;;;22.70;57.10;;;;;;4145125;28;20040;-87
2022/05/19 11:14:47;;;;;;;11.30;5.82;;;22.70;56.70;;;;;;4145613;28;20117;-85
2022/05/19 11:17:56;;;;;;;9.45;5.72;;;22.70;56.80;;;;;;4146162;28;20508;-85
2022/05/19 11:20:14;;;;;;;10.20;4.63;;;22.60;56.00;;;;;;4129590;28;20030;-85
2022/05/19 11:22:38;;;;;;;7.88;5.05;;;22.70;55.80;;;;;;4128597;28;20030;-86
2022/05/19 11:27:48;;;;;;;9.20;5.80;;;22.60;56.00;;;;;;4147518;28;20026;-87
2022/05/19 11:30:14;;;;;;;11.27;4.80;;;22.60;56.00;;;;;;4142894;28;20036;-86
2022/05/19 11:32:37;;;;;;;8.05;5.00;;;22.50;56.10;;;;;;4142704;28;20057;-85
2022/05/19 11:35:34;;;;;;;8.93;5.50;;;22.50;55.60;;;;;;4146550;28;20034;-86